createdAt,value
2024-02-06T00:00:18.703Z,96238.01
2024-02-06T00:03:06.673Z,96235.95
2024-02-06T00:05:35.026Z,96229.81
2024-02-06T00:08:03.131Z,96224.58
2024-02-06T00:10:31.234Z,96225.10
2024-02-06T00:12:59.241Z,96225.67
2024-02-06T00:15:27.187Z,96224.95
2024-02-06T00:17:55.377Z,96223.48
2024-02-06T00:20:23.864Z,96226.35
2024-02-06T00:22:52.105Z,96227.98
2024-02-06T00:25:20.016Z,96231.07
2024-02-06T00:27:47.964Z,96231.14
2024-02-06T00:30:16.420Z,96224.26
2024-02-06T00:32:45.329Z,96221.67
2024-02-06T00:35:13.639Z,96222.08
2024-02-06T00:37:42.015Z,96220.08
2024-02-06T00:40:11.149Z,96218.91
2024-02-06T00:42:39.452Z,96221.17
2024-02-06T00:45:08.035Z,96222.41
2024-02-06T00:47:36.057Z,96215.70
2024-02-06T00:50:04.830Z,96215.00
2024-02-06T00:52:33.069Z,96213.87
2024-02-06T00:55:01.211Z,96216.61
2024-02-06T00:57:29.239Z,96220.30
2024-02-06T00:59:57.387Z,96219.16
2024-02-06T01:02:26.974Z,96216.19
2024-02-06T01:04:55.226Z,96211.81
2024-02-06T01:07:23.260Z,96210.83
2024-02-06T01:09:51.697Z,96210.17
2024-02-06T01:12:21.341Z,96206.19
2024-02-06T01:14:49.573Z,96204.52
2024-02-06T01:17:17.569Z,96210.30
2024-02-06T01:19:45.699Z,96207.32
2024-02-06T01:22:13.799Z,96206.77
2024-02-06T01:24:41.710Z,96198.66
2024-02-06T01:27:09.567Z,96193.94
2024-02-06T01:29:38.556Z,96196.07
2024-02-06T01:32:07.024Z,96197.51
2024-02-06T01:34:35.215Z,96199.29
2024-02-06T01:37:04.021Z,96195.80
2024-02-06T01:39:32.618Z,96191.04
2024-02-06T01:42:04.519Z,96188.39
2024-02-06T01:44:32.841Z,96183.27
2024-02-06T01:47:01.117Z,96183.84
2024-02-06T01:49:29.705Z,96189.32
2024-02-06T01:51:57.898Z,96184.28
2024-02-06T01:54:25.815Z,96186.20
2024-02-06T01:56:55.134Z,96182.98
2024-02-06T01:59:23.206Z,96179.56
2024-02-06T02:01:51.264Z,96178.52
2024-02-06T02:04:19.672Z,96179.86
2024-02-06T02:06:48.201Z,96180.19
2024-02-06T02:09:16.434Z,96179.10
2024-02-06T02:11:44.628Z,96180.56
2024-02-06T02:14:12.639Z,96179.10
2024-02-06T02:16:40.676Z,96177.73
2024-02-06T02:19:08.884Z,96188.59
2024-02-06T02:21:39.849Z,96187.37
2024-02-06T02:24:08.505Z,96186.98
2024-02-06T02:26:38.857Z,96188.38
2024-02-06T02:29:07.056Z,96188.62
2024-02-06T02:31:35.540Z,96189.99
2024-02-06T02:34:03.805Z,96190.55
2024-02-06T02:36:32.121Z,96189.70
2024-02-06T02:39:00.096Z,96200.63
2024-02-06T02:41:28.131Z,96194.95
2024-02-06T02:43:56.399Z,96199.35
2024-02-06T02:46:24.763Z,96195.59
2024-02-06T02:48:53.025Z,96192.94
2024-02-06T02:51:21.220Z,96194.77
2024-02-06T02:53:49.249Z,96200.52
2024-02-06T02:56:18.522Z,96201.65
2024-02-06T02:58:47.883Z,96205.52
2024-02-06T03:01:16.131Z,96204.11
2024-02-06T03:03:44.627Z,96210.80
2024-02-06T03:06:21.887Z,96203.05
2024-02-06T03:08:50.076Z,96207.96
2024-02-06T03:11:18.062Z,96208.26
2024-02-06T03:13:46.178Z,96211.53
2024-02-06T03:16:14.337Z,96206.98
2024-02-06T03:18:42.475Z,96208.23
2024-02-06T03:21:10.500Z,96217.43
2024-02-06T03:23:38.732Z,96214.63
2024-02-06T03:26:07.016Z,96218.02
2024-02-06T03:28:35.223Z,96217.62
2024-02-06T03:31:04.142Z,96219.76
2024-02-06T03:33:34.651Z,96217.38
2024-02-06T03:36:02.972Z,96214.77
2024-02-06T03:38:31.085Z,96218.48
2024-02-06T03:40:59.345Z,96221.16
2024-02-06T03:43:27.361Z,96220.08
2024-02-06T03:45:56.103Z,96213.71
2024-02-06T03:48:24.536Z,96213.23
2024-02-06T03:50:53.256Z,96209.86
2024-02-06T03:53:21.286Z,96209.68
2024-02-06T03:55:49.479Z,96207.91
2024-02-06T03:58:17.677Z,96196.98
2024-02-06T04:00:51.337Z,96203.96
2024-02-06T04:03:19.976Z,96208.09
2024-02-06T04:05:48.447Z,96205.90
2024-02-06T04:08:16.666Z,96205.86
2024-02-06T04:10:45.298Z,96207.24
2024-02-06T04:13:14.334Z,96206.34
2024-02-06T04:15:42.978Z,96209.02
2024-02-06T04:18:11.522Z,96208.52
2024-02-06T04:20:39.742Z,96210.89
2024-02-06T04:23:07.758Z,96206.74
2024-02-06T04:25:36.067Z,96206.65
2024-02-06T04:28:05.714Z,96211.69
2024-02-06T04:30:33.870Z,96209.70
2024-02-06T04:33:02.124Z,96210.43
2024-02-06T04:35:30.356Z,96204.05
2024-02-06T04:37:58.796Z,96207.80
2024-02-06T04:40:26.984Z,96202.21
2024-02-06T04:42:55.179Z,96207.09
2024-02-06T04:45:23.342Z,96199.20
2024-02-06T04:47:52.291Z,96201.04
2024-02-06T04:50:20.560Z,96198.06
2024-02-06T04:52:48.636Z,96201.04
2024-02-06T04:55:16.809Z,96197.11
2024-02-06T04:57:44.746Z,96197.84
2024-02-06T05:00:14.639Z,96198.43
2024-02-06T05:02:43.039Z,96202.64
2024-02-06T05:05:11.389Z,96200.06
2024-02-06T05:07:40.055Z,96200.41
2024-02-06T05:10:11.845Z,96200.20
2024-02-06T05:12:40.134Z,96200.39
2024-02-06T05:15:09.310Z,96200.08
2024-02-06T05:17:37.573Z,96198.73
2024-02-06T05:20:06.769Z,96197.55
2024-02-06T05:22:34.966Z,96204.05
2024-02-06T05:25:03.491Z,96204.11
2024-02-06T05:27:31.640Z,96199.61
2024-02-06T05:30:00.464Z,96208.58
2024-02-06T05:32:28.899Z,96206.54
2024-02-06T05:34:58.787Z,96208.05
2024-02-06T05:37:27.720Z,96211.77
2024-02-06T05:39:55.832Z,96215.48
2024-02-06T05:42:24.038Z,96207.61
2024-02-06T05:44:52.192Z,96205.48
2024-02-06T05:47:20.375Z,96207.81
2024-02-06T05:49:48.560Z,96203.81
2024-02-06T05:52:16.692Z,96204.70
2024-02-06T05:54:44.725Z,96206.05
2024-02-06T05:57:14.003Z,96207.48
2024-02-06T05:59:42.124Z,96211.77
2024-02-06T06:02:10.292Z,96208.77
2024-02-06T06:04:38.837Z,96207.48
2024-02-06T06:07:08.105Z,96205.33
2024-02-06T06:09:36.365Z,96215.89
2024-02-06T06:12:05.229Z,96215.41
2024-02-06T06:14:33.387Z,96211.39
2024-02-06T06:17:01.332Z,96208.89
2024-02-06T06:19:29.602Z,96204.60
2024-02-06T06:21:57.893Z,96206.28
2024-02-06T06:24:25.961Z,96209.09
2024-02-06T06:26:54.405Z,96204.30
2024-02-06T06:29:23.216Z,96206.05
2024-02-06T06:31:52.192Z,96204.27
2024-02-06T06:34:20.634Z,96195.47
2024-02-06T06:36:49.286Z,96192.90
2024-02-06T06:39:19.323Z,96194.44
2024-02-06T06:41:49.236Z,96193.98
2024-02-06T06:44:17.802Z,96191.98
2024-02-06T06:46:48.159Z,96193.50
2024-02-06T06:49:16.688Z,96189.95
2024-02-06T06:51:45.042Z,96193.85
2024-02-06T06:54:13.053Z,96189.81
2024-02-06T06:56:41.189Z,96190.73
2024-02-06T06:59:10.023Z,96186.36
2024-02-06T07:01:38.432Z,96191.11
2024-02-06T07:04:07.115Z,96184.84
2024-02-06T07:06:38.830Z,96184.15
2024-02-06T07:09:08.534Z,96185.54
2024-02-06T07:11:37.028Z,96184.45
2024-02-06T07:14:05.717Z,96191.73
2024-02-06T07:16:34.003Z,96188.56
2024-02-06T07:19:02.283Z,96190.39
2024-02-06T07:21:30.757Z,96198.37
2024-02-06T07:23:58.810Z,96197.46
2024-02-06T07:26:27.142Z,96200.23
2024-02-06T07:28:56.429Z,96197.75
2024-02-06T07:31:25.238Z,96203.14
2024-02-06T07:33:53.956Z,96194.70
2024-02-06T07:36:22.351Z,96190.17
2024-02-06T07:38:50.866Z,96199.77
2024-02-06T07:41:19.192Z,96190.09
2024-02-06T07:43:47.502Z,96194.69
2024-02-06T07:46:15.841Z,96190.59
2024-02-06T07:48:44.166Z,96192.00
2024-02-06T07:51:12.420Z,96189.73
2024-02-06T07:53:40.310Z,96190.81
2024-02-06T07:56:08.369Z,96193.58
2024-02-06T07:58:36.378Z,96192.17
2024-02-06T08:01:04.822Z,96185.50
2024-02-06T08:03:32.998Z,96185.75
2024-02-06T08:06:02.160Z,96186.68
2024-02-06T08:08:30.445Z,96184.89
2024-02-06T08:10:58.990Z,96176.09
2024-02-06T08:13:28.044Z,96184.77
2024-02-06T08:15:56.605Z,96186.04
2024-02-06T08:18:25.171Z,96181.77
2024-02-06T08:20:53.486Z,96175.69
2024-02-06T08:23:23.582Z,96173.35
2024-02-06T08:25:52.392Z,96169.64
2024-02-06T08:28:21.068Z,96158.46
2024-02-06T08:30:50.893Z,96161.46
2024-02-06T08:33:19.275Z,96151.80
2024-02-06T08:35:52.767Z,96152.77
2024-02-06T08:38:21.273Z,96152.11
2024-02-06T08:40:49.769Z,96153.65
2024-02-06T08:43:18.668Z,96150.85
2024-02-06T08:45:47.345Z,96152.45
2024-02-06T08:48:15.752Z,96145.63
2024-02-06T08:50:44.898Z,96147.83
2024-02-06T08:53:13.040Z,96147.06
2024-02-06T08:55:41.331Z,96148.83
2024-02-06T08:58:09.859Z,96149.35
2024-02-06T09:00:38.131Z,96154.52
2024-02-06T09:03:06.320Z,96152.14
2024-02-06T09:05:34.954Z,96146.98
2024-02-06T09:08:03.837Z,96149.75
2024-02-06T09:10:32.901Z,96149.59
2024-02-06T09:13:02.137Z,96149.30
2024-02-06T09:15:31.684Z,96155.36
2024-02-06T09:18:02.155Z,96155.83
2024-02-06T09:20:31.810Z,96158.35
2024-02-06T09:23:00.498Z,96163.48
2024-02-06T09:25:29.235Z,96153.82
2024-02-06T09:27:58.310Z,96171.40
2024-02-06T09:30:26.561Z,96165.99
2024-02-06T09:32:55.561Z,96171.91
2024-02-06T09:35:23.912Z,96176.53
2024-02-06T09:37:52.078Z,96172.13
2024-02-06T09:40:20.254Z,96171.90
2024-02-06T09:42:48.882Z,96176.30
2024-02-06T09:45:16.946Z,96166.73
2024-02-06T09:47:45.540Z,96164.96
2024-02-06T09:50:14.032Z,96164.25
2024-02-06T09:52:42.559Z,96165.95
2024-02-06T09:55:13.126Z,96164.14
2024-02-06T09:57:43.016Z,96157.21
2024-02-06T10:00:11.746Z,96157.34
2024-02-06T10:02:43.402Z,96146.65
2024-02-06T10:05:17.391Z,96155.00
2024-02-06T10:07:48.727Z,96150.11
2024-02-06T10:10:17.801Z,96150.13
2024-02-06T10:12:45.878Z,96144.67
2024-02-06T10:15:19.094Z,96143.11
2024-02-06T10:17:47.105Z,96134.96
2024-02-06T10:20:15.696Z,96130.41
2024-02-06T10:22:44.530Z,96134.78
2024-02-06T10:25:15.037Z,96128.84
2024-02-06T10:27:43.437Z,96129.36
2024-02-06T10:30:12.207Z,96131.70
2024-02-06T10:32:40.547Z,96130.11
2024-02-06T10:35:09.574Z,96132.71
2024-02-06T10:37:39.727Z,96136.10
2024-02-06T10:40:11.380Z,96130.15
2024-02-06T10:43:24.419Z,96127.27
2024-02-06T10:45:28.929Z,96127.02
2024-02-06T10:48:00.710Z,96123.14
2024-02-06T10:50:29.827Z,96123.76
2024-02-06T10:52:58.240Z,96123.95
2024-02-06T10:55:26.739Z,96104.55
2024-02-06T10:58:07.260Z,96109.71
2024-02-06T11:00:38.153Z,96112.17
2024-02-06T11:03:09.413Z,96101.29
2024-02-06T11:05:45.527Z,96113.14
2024-02-06T11:08:18.005Z,96098.95
2024-02-06T11:10:57.445Z,96095.61
2024-02-06T11:13:47.670Z,96092.42
2024-02-06T11:16:19.260Z,96085.55
2024-02-06T11:19:10.252Z,96089.62
2024-02-06T11:21:42.144Z,96092.63
2024-02-06T11:24:10.551Z,96089.40
2024-02-06T11:26:43.350Z,96089.15
2024-02-06T11:29:11.423Z,96087.73
2024-02-06T11:31:40.176Z,96082.92
2024-02-06T11:34:15.723Z,96080.14
2024-02-06T11:36:44.187Z,96084.60
2024-02-06T11:39:18.789Z,96072.33
2024-02-06T11:41:49.267Z,96075.95
2024-02-06T11:44:20.745Z,96071.25
2024-02-06T11:46:50.659Z,96064.60
2024-02-06T11:49:23.510Z,96066.06
2024-02-06T11:51:58.162Z,96068.45
2024-02-06T11:54:29.673Z,96057.67
2024-02-06T11:56:59.965Z,96047.18
2024-02-06T11:59:28.049Z,96045.11
2024-02-06T12:01:56.988Z,96040.76
2024-02-06T12:04:26.014Z,96050.05
2024-02-06T12:07:05.420Z,96055.54
2024-02-06T12:09:42.941Z,96056.18
2024-02-06T12:12:12.484Z,96055.42
2024-02-06T12:14:40.702Z,96043.99
2024-02-06T12:17:08.752Z,96037.05
2024-02-06T12:19:37.143Z,96042.00
2024-02-06T12:22:14.069Z,96039.09
2024-02-06T12:24:42.505Z,96041.55
2024-02-06T12:27:11.188Z,96035.81
2024-02-06T12:29:40.510Z,96032.91
2024-02-06T12:32:09.449Z,96031.67
2024-02-06T12:34:38.280Z,96029.49
2024-02-06T12:37:07.268Z,96021.64
2024-02-06T12:39:35.451Z,96023.79
2024-02-06T12:42:06.927Z,96018.04
2024-02-06T12:44:45.370Z,96020.17
2024-02-06T12:47:18.111Z,96022.46
2024-02-06T12:49:46.543Z,96018.31
2024-02-06T12:52:20.530Z,96015.56
2024-02-06T12:54:49.159Z,96015.63
2024-02-06T12:57:17.781Z,96016.58
2024-02-06T12:59:50.462Z,96006.77
2024-02-06T13:02:18.761Z,96011.36
2024-02-06T13:04:47.204Z,96004.14
2024-02-06T13:07:25.448Z,96003.86
2024-02-06T13:10:01.724Z,96005.23
2024-02-06T13:12:29.931Z,96015.17
2024-02-06T13:15:01.648Z,96003.95
2024-02-06T13:17:30.928Z,96004.38
2024-02-06T13:20:09.594Z,96003.17
2024-02-06T13:22:39.696Z,96001.90
2024-02-06T13:25:12.403Z,96000.16
2024-02-06T13:27:40.687Z,95999.49
2024-02-06T13:30:09.884Z,95997.16
2024-02-06T13:32:38.023Z,96003.29
2024-02-06T13:35:07.517Z,96003.38
2024-02-06T13:37:37.200Z,96004.45
2024-02-06T13:40:07.433Z,96007.25
2024-02-06T13:42:35.823Z,96001.52
2024-02-06T13:45:05.298Z,96001.67
2024-02-06T13:47:34.946Z,96002.92
2024-02-06T13:50:03.325Z,96004.26
2024-02-06T13:52:31.800Z,96002.81
2024-02-06T13:55:00.041Z,96007.23
2024-02-06T13:57:28.518Z,96006.73
2024-02-06T13:59:57.113Z,96000.59
2024-02-06T14:02:25.480Z,95999.99
2024-02-06T14:04:54.077Z,96008.55
2024-02-06T14:07:24.573Z,95994.99
2024-02-06T14:09:53.641Z,95993.45
2024-02-06T14:12:26.559Z,95987.95
2024-02-06T14:14:58.535Z,95995.64
2024-02-06T14:17:28.593Z,95999.67
2024-02-06T14:19:57.622Z,95998.71
2024-02-06T14:22:25.831Z,95996.59
2024-02-06T14:24:54.028Z,95997.80
2024-02-06T14:27:23.158Z,95992.79
2024-02-06T14:29:51.448Z,95988.27
2024-02-06T14:32:19.521Z,95986.19
2024-02-06T14:34:48.744Z,95984.42
2024-02-06T14:37:18.026Z,95981.88
2024-02-06T14:39:46.173Z,95978.98
2024-02-06T14:42:14.353Z,95976.76
2024-02-06T14:44:48.015Z,95981.71
2024-02-06T14:47:20.324Z,95980.84
2024-02-06T14:49:48.950Z,95980.52
2024-02-06T14:52:17.362Z,95980.19
2024-02-06T14:54:46.233Z,95978.40
2024-02-06T14:57:14.384Z,95976.08
2024-02-06T14:59:42.380Z,95974.77
2024-02-06T15:02:10.592Z,95974.42
2024-02-06T15:04:38.733Z,95972.05
2024-02-06T15:07:07.565Z,95980.83
2024-02-06T15:09:38.058Z,95974.52
2024-02-06T15:12:06.737Z,95974.05
2024-02-06T15:14:34.881Z,95981.05
2024-02-06T15:17:04.488Z,95987.20
2024-02-06T15:19:32.817Z,95985.24
2024-02-06T15:22:01.719Z,95985.03
2024-02-06T15:24:30.037Z,95990.15
2024-02-06T15:27:03.106Z,95992.70
2024-02-06T15:29:31.427Z,95994.95
2024-02-06T15:32:00.060Z,95999.46
2024-02-06T15:34:28.464Z,96005.67
2024-02-06T15:36:58.299Z,96010.58
2024-02-06T15:39:26.466Z,96012.95
2024-02-06T15:41:54.670Z,96014.88
2024-02-06T15:44:23.192Z,96014.89
2024-02-06T15:46:55.322Z,96013.39
2024-02-06T15:49:24.127Z,96007.78
2024-02-06T15:51:52.532Z,96007.71
2024-02-06T15:54:21.048Z,96003.53
2024-02-06T15:56:49.607Z,96002.50
2024-02-06T15:59:18.564Z,95999.38
2024-02-06T16:01:48.767Z,95998.27
2024-02-06T16:04:17.478Z,96000.46
2024-02-06T16:06:46.103Z,96002.86
2024-02-06T16:09:20.388Z,95996.61
2024-02-06T16:11:52.855Z,95992.05
2024-02-06T16:14:21.922Z,95994.19
2024-02-06T16:16:53.237Z,95984.98
2024-02-06T16:19:30.247Z,95986.33
2024-02-06T16:22:02.141Z,95981.00
2024-02-06T16:24:30.639Z,95976.85
2024-02-06T16:27:00.241Z,95981.59
2024-02-06T16:29:28.877Z,95980.92
2024-02-06T16:31:57.675Z,95981.77
2024-02-06T16:34:37.128Z,95986.15
2024-02-06T16:37:08.265Z,95988.82
2024-02-06T16:39:37.159Z,95982.05
2024-02-06T16:42:06.938Z,95973.68
2024-02-06T16:44:35.476Z,95976.30
2024-02-06T16:47:04.196Z,95971.04
2024-02-06T16:49:32.499Z,95975.56
2024-02-06T16:52:00.926Z,95965.59
2024-02-06T16:54:29.259Z,95963.92
2024-02-06T16:56:57.833Z,95966.58
2024-02-06T16:59:26.201Z,95969.89
2024-02-06T17:01:54.861Z,95966.73
2024-02-06T17:04:23.644Z,95971.52
2024-02-06T17:06:52.278Z,95973.27
2024-02-06T17:09:20.819Z,95968.88
2024-02-06T17:11:49.512Z,95968.55
2024-02-06T17:14:17.637Z,95971.27
2024-02-06T17:16:46.477Z,95967.89
2024-02-06T17:19:15.468Z,95962.91
2024-02-06T17:21:46.570Z,95964.96
2024-02-06T17:24:14.939Z,95966.98
2024-02-06T17:26:43.422Z,95971.15
2024-02-06T17:29:11.581Z,95975.27
2024-02-06T17:31:39.740Z,95978.23
2024-02-06T17:34:08.204Z,95987.79
2024-02-06T17:36:40.109Z,95992.77
2024-02-06T17:39:08.915Z,96005.17
2024-02-06T17:41:37.452Z,96012.02
2024-02-06T17:44:05.678Z,96013.39
2024-02-06T17:46:34.213Z,96007.04
2024-02-06T17:49:02.911Z,96006.34
2024-02-06T17:51:32.318Z,96007.13
2024-02-06T17:54:00.755Z,96014.34
2024-02-06T17:56:29.566Z,96015.05
2024-02-06T17:58:58.466Z,96010.90
2024-02-06T18:01:26.976Z,96004.50
2024-02-06T18:03:55.272Z,96000.60
2024-02-06T18:06:23.452Z,96000.27
2024-02-06T18:08:51.664Z,95998.09
2024-02-06T18:11:20.728Z,95995.94
2024-02-06T18:13:48.834Z,95993.73
2024-02-06T18:16:17.062Z,95989.45
2024-02-06T18:18:45.341Z,95988.42
2024-02-06T18:21:13.636Z,95986.30
2024-02-06T18:23:42.542Z,95981.47
2024-02-06T18:26:11.002Z,95980.13
2024-02-06T18:28:39.298Z,95983.39
2024-02-06T18:31:08.334Z,95978.44
2024-02-06T18:33:36.696Z,95978.73
2024-02-06T18:36:10.038Z,95975.56
2024-02-06T18:38:38.144Z,95972.56
2024-02-06T18:41:07.056Z,95974.34
2024-02-06T18:43:36.184Z,95975.48
2024-02-06T18:46:04.803Z,95975.15
2024-02-06T18:48:32.999Z,95973.70
2024-02-06T18:51:01.334Z,95972.80
2024-02-06T18:53:29.415Z,95968.04
2024-02-06T18:55:57.583Z,95966.36
2024-02-06T18:58:26.383Z,95962.80
2024-02-06T19:00:54.464Z,95968.99
2024-02-06T19:03:22.652Z,95968.21
2024-02-06T19:05:51.080Z,95970.35
2024-02-06T19:08:19.599Z,95971.09
2024-02-06T19:10:48.308Z,95973.33
2024-02-06T19:13:16.984Z,95969.42
2024-02-06T19:15:45.359Z,95971.88
2024-02-06T19:18:13.872Z,95971.73
2024-02-06T19:20:42.197Z,95969.71
2024-02-06T19:23:10.220Z,95976.56
2024-02-06T19:25:38.209Z,95984.41
2024-02-06T19:28:06.884Z,95983.41
2024-02-06T19:30:36.571Z,95987.04
2024-02-06T19:33:05.325Z,95991.61
2024-02-06T19:35:35.449Z,95989.52
2024-02-06T19:38:04.296Z,95991.16
2024-02-06T19:40:32.386Z,95994.36
2024-02-06T19:43:00.616Z,95996.83
2024-02-06T19:45:28.951Z,96002.11
2024-02-06T19:47:58.140Z,96001.40
2024-02-06T19:50:27.008Z,96013.27
2024-02-06T19:52:55.794Z,96010.23
2024-02-06T19:55:24.326Z,96018.85
2024-02-06T19:57:52.623Z,96019.87
2024-02-06T20:00:20.760Z,96018.16
2024-02-06T20:02:49.425Z,96023.83
2024-02-06T20:05:18.626Z,96027.60
2024-02-06T20:07:46.998Z,96028.48
2024-02-06T20:10:16.520Z,96029.52
2024-02-06T20:12:44.760Z,96027.85
2024-02-06T20:15:13.060Z,96026.18
2024-02-06T20:17:41.302Z,96028.25
2024-02-06T20:20:10.475Z,96025.98
2024-02-06T20:22:38.870Z,96021.43
2024-02-06T20:25:07.863Z,96023.41
2024-02-06T20:27:36.549Z,96017.50
2024-02-06T20:30:06.946Z,96025.30
2024-02-06T20:32:35.102Z,96022.64
2024-02-06T20:35:03.847Z,96027.83
2024-02-06T20:37:32.042Z,96027.98
2024-02-06T20:40:00.227Z,96028.17
2024-02-06T20:42:28.967Z,96035.73
2024-02-06T20:44:57.263Z,96028.68
2024-02-06T20:47:25.448Z,96030.40
2024-02-06T20:49:53.757Z,96022.77
2024-02-06T20:52:22.053Z,96026.94
2024-02-06T20:54:50.274Z,96029.77
2024-02-06T20:57:18.551Z,96026.02
2024-02-06T20:59:47.465Z,96031.75
2024-02-06T21:02:15.613Z,96032.96
2024-02-06T21:04:44.520Z,96030.55
2024-02-06T21:07:12.882Z,96026.95
2024-02-06T21:09:41.448Z,96028.63
2024-02-06T21:12:09.569Z,96028.73
2024-02-06T21:14:38.970Z,96024.73
2024-02-06T21:17:07.299Z,96020.16
2024-02-06T21:19:35.688Z,96024.16
2024-02-06T21:22:04.261Z,96025.19
2024-02-06T21:24:32.956Z,96027.09
2024-02-06T21:27:01.027Z,96020.66
2024-02-06T21:29:29.040Z,96017.51
2024-02-06T21:31:58.113Z,96016.89
2024-02-06T21:34:26.931Z,96020.61
2024-02-06T21:36:57.655Z,96015.92
2024-02-06T21:39:26.412Z,96017.21
2024-02-06T21:41:54.396Z,96015.52
2024-02-06T21:44:23.359Z,96012.23
2024-02-06T21:46:51.718Z,96013.86
2024-02-06T21:49:20.058Z,96012.95
2024-02-06T21:51:48.284Z,96011.67
2024-02-06T21:54:16.315Z,96007.64
2024-02-06T21:56:44.439Z,96007.55
2024-02-06T21:59:13.447Z,96012.67
2024-02-06T22:01:47.089Z,96014.56
2024-02-06T22:04:15.871Z,96016.86
2024-02-06T22:06:44.281Z,96021.31
2024-02-06T22:09:13.078Z,96022.36
2024-02-06T22:11:41.470Z,96022.29
2024-02-06T22:14:10.314Z,96022.77
2024-02-06T22:16:39.171Z,96026.07
2024-02-06T22:19:07.283Z,96026.79
2024-02-06T22:21:35.350Z,96030.84
2024-02-06T22:24:03.677Z,96030.59
2024-02-06T22:26:32.010Z,96028.73
2024-02-06T22:29:00.231Z,96030.36
2024-02-06T22:31:28.674Z,96030.68
2024-02-06T22:33:57.414Z,96032.15
2024-02-06T22:36:25.788Z,96028.10
2024-02-06T22:38:53.802Z,96033.48
2024-02-06T22:41:21.750Z,96032.56
2024-02-06T22:43:50.025Z,96036.95
2024-02-06T22:46:18.176Z,96037.87
2024-02-06T22:48:46.064Z,96034.55
2024-02-06T22:51:14.414Z,96041.71
2024-02-06T22:53:42.578Z,96037.93
2024-02-06T22:56:10.871Z,96039.37
2024-02-06T22:58:39.071Z,96036.84
2024-02-06T23:01:07.231Z,96031.84
2024-02-06T23:03:35.586Z,96037.73
2024-02-06T23:06:04.400Z,96039.72
2024-02-06T23:08:32.628Z,96040.53
2024-02-06T23:11:01.027Z,96036.45
2024-02-06T23:13:29.564Z,96036.40
2024-02-06T23:15:57.813Z,96034.32
2024-02-06T23:18:26.323Z,96035.89
2024-02-06T23:20:54.602Z,96039.73
2024-02-06T23:23:23.415Z,96037.73
2024-02-06T23:25:51.610Z,96035.48
2024-02-06T23:28:19.946Z,96032.45
2024-02-06T23:30:48.717Z,96033.86
2024-02-06T23:33:16.972Z,96031.75
2024-02-06T23:35:45.153Z,96034.79
2024-02-06T23:38:13.445Z,96035.13
2024-02-06T23:40:41.350Z,96030.30
2024-02-06T23:43:10.011Z,96035.92
2024-02-06T23:45:38.100Z,96035.38
2024-02-06T23:48:08.752Z,96036.17
2024-02-06T23:50:37.897Z,96033.19
2024-02-06T23:53:06.333Z,96025.89
2024-02-06T23:55:34.399Z,96031.86
2024-02-06T23:58:02.585Z,96034.05
